Time;durP1;ratioP1;P1;durP2;ratioP2;P2;SDS_P1;SDS_P2;PMS_P1;PMS_P2;Temp;Humidity;BMP_temperature;BMP_pressure;BME280_temperature;BME280_humidity;BME280_pressure;Samples;Min_cycle;Max_cycle;Signal;HPM_P1;HPM_P2
2022/08/13 00:00:32;;;;;;;;;;;;;;;20.33;72.15;99867.91;5057755;28;19917;-81
2022/08/13 00:03:01;;;;;;;;;;;;;;;20.39;71.19;99869.00;5057187;28;20003;-81
2022/08/13 00:05:29;;;;;;;;;;;;;;;20.44;71.04;99869.72;5058225;28;19931;-81
2022/08/13 00:07:54;;;;;;;;;;;;;;;20.35;70.86;99864.69;5057238;28;19923;-81
2022/08/13 00:10:30;;;;;;;;;;;;;;;20.30;72.12;99865.97;5057571;28;20003;-81
2022/08/13 00:12:56;;;;;;;;;;;;;;;20.33;71.73;99865.09;5056715;28;19920;-81
2022/08/13 00:15:28;;;;;;;;;;;;;;;20.35;71.85;99857.00;5057741;28;20359;-81
2022/08/13 00:17:56;;;;;;;;;;;;;;;20.39;71.15;99856.91;5056865;28;19916;-81
2022/08/13 00:20:25;;;;;;;;;;;;;;;20.45;70.62;99865.66;5056024;28;20217;-81
2022/08/13 00:22:51;;;;;;;;;;;;;;;20.45;70.78;99866.44;5057278;28;20010;-81
2022/08/13 00:25:16;;;;;;;;;;;;;;;20.48;70.13;99867.63;5057046;28;20393;-81
2022/08/13 00:27:47;;;;;;;;;;;;;;;20.44;70.46;99878.19;5056748;28;20378;-81
2022/08/13 00:30:15;;;;;;;;;;;;;;;20.38;70.28;99867.41;5056413;28;19916;-81
2022/08/13 00:32:41;;;;;;;;;;;;;;;20.26;70.35;99870.13;5056724;28;19920;-82
2022/08/13 00:35:07;;;;;;;;;;;;;;;20.19;70.53;99861.78;5057162;28;19920;-81
2022/08/13 00:37:32;;;;;;;;;;;;;;;20.20;70.16;99861.38;5057063;28;20004;-81
2022/08/13 00:39:58;;;;;;;;;;;;;;;20.13;70.52;99867.13;5056903;28;19916;-81
2022/08/13 00:42:24;;;;;;;;;;;;;;;20.13;70.83;99872.78;5056367;28;19916;-81
2022/08/13 00:44:52;;;;;;;;;;;;;;;20.15;71.58;99870.34;5056592;28;19959;-82
2022/08/13 00:50:06;;;;;;;;;;;;;;;20.22;70.32;99863.75;5075026;28;20366;-80
2022/08/13 00:52:32;;;;;;;;;;;;;;;20.22;70.54;99870.19;5074397;28;20375;-80
2022/08/13 00:55:00;;;;;;;;;;;;;;;20.25;70.84;99866.50;5056304;28;19917;-80
2022/08/13 00:57:26;;;;;;;;;;;;;;;20.25;70.61;99863.66;5056033;28;19973;-80
2022/08/13 00:59:53;;;;;;;;;;;;;;;20.29;70.17;99857.91;5073203;28;19927;-80
2022/08/13 01:02:21;;;;;;;;;;;;;;;20.35;70.22;99857.00;5055964;28;20367;-80
2022/08/13 01:04:47;;;;;;;;;;;;;;;20.37;69.57;99860.16;5056234;28;19920;-80
2022/08/13 01:07:20;;;;;;;;;;;;;;;20.38;69.38;99861.75;5055912;28;19916;-80
2022/08/13 01:09:45;;;;;;;;;;;;;;;20.42;69.54;99862.47;5055736;28;19917;-80
2022/08/13 01:12:13;;;;;;;;;;;;;;;20.45;69.34;99860.00;5056056;28;19939;-80
2022/08/13 01:14:39;;;;;;;;;;;;;;;20.50;69.28;99856.69;5056098;28;19916;-80
2022/08/13 01:17:04;;;;;;;;;;;;;;;20.47;69.12;99854.75;5056303;28;19920;-80
2022/08/13 01:19:31;;;;;;;;;;;;;;;20.47;68.58;99851.94;5055921;28;19917;-80
2022/08/13 01:21:58;;;;;;;;;;;;;;;20.46;68.42;99853.97;5055948;28;19927;-80
2022/08/13 01:24:24;;;;;;;;;;;;;;;20.37;69.29;99854.50;5055888;28;20302;-80
2022/08/13 01:26:49;;;;;;;;;;;;;;;20.28;69.65;99856.34;5073799;28;19916;-80
2022/08/13 01:29:18;;;;;;;;;;;;;;;20.21;69.99;99848.81;5056495;28;19962;-80
2022/08/13 01:31:44;;;;;;;;;;;;;;;20.15;69.91;99856.22;5055932;28;19960;-81
2022/08/13 01:34:10;;;;;;;;;;;;;;;20.13;70.19;99851.03;5055986;28;20278;-80
2022/08/13 01:36:39;;;;;;;;;;;;;;;20.16;70.55;99843.69;5056228;28;20232;-80
2022/08/13 01:39:05;;;;;;;;;;;;;;;20.20;69.80;99841.59;5055509;28;19916;-80
2022/08/13 01:41:34;;;;;;;;;;;;;;;20.29;69.53;99835.31;5073686;28;19916;-80
2022/08/13 01:44:04;;;;;;;;;;;;;;;20.23;69.49;99832.22;5055482;28;19916;-81
2022/08/13 01:50:28;;;;;;;;;;;;;;;20.23;70.18;99832.22;5073522;28;19916;-80
2022/08/13 01:51:59;;;;;;;;;;;;;;;20.15;69.59;99825.16;5074275;28;19939;-81
2022/08/13 01:54:25;;;;;;;;;;;;;;;20.10;70.06;99825.66;5055777;28;19917;-80
2022/08/13 01:56:50;;;;;;;;;;;;;;;20.06;69.88;99817.25;5055921;28;19962;-80
2022/08/13 01:59:15;;;;;;;;;;;;;;;20.00;70.19;99818.22;5073985;28;20274;-80
2022/08/13 02:01:42;;;;;;;;;;;;;;;20.04;71.61;99825.38;5055729;28;19916;-80
2022/08/13 02:04:07;;;;;;;;;;;;;;;20.15;70.40;99831.59;5055366;28;19999;-80
2022/08/13 02:06:34;;;;;;;;;;;;;;;20.24;70.83;99822.53;5073403;28;20028;-80
2022/08/13 02:09:02;;;;;;;;;;;;;;;20.24;69.83;99827.38;5055258;28;19964;-80
2022/08/13 02:11:28;;;;;;;;;;;;;;;20.26;70.03;99824.91;5055891;28;20396;-80
2022/08/13 02:13:55;;;;;;;;;;;;;;;20.27;69.33;99821.66;5072939;28;19956;-80
2022/08/13 02:16:20;;;;;;;;;;;;;;;20.24;69.30;99819.72;5055237;28;19920;-80
2022/08/13 02:18:48;;;;;;;;;;;;;;;20.20;70.06;99812.53;5055650;28;19939;-80
2022/08/13 02:21:14;;;;;;;;;;;;;;;20.26;70.53;99820.06;5073093;28;19924;-80
2022/08/13 02:23:51;;;;;;;;;;;;;;;20.27;70.05;99824.47;5055125;28;20253;-80
2022/08/13 02:26:17;;;;;;;;;;;;;;;20.32;69.78;99821.13;5055271;28;20419;-79
2022/08/13 02:28:43;;;;;;;;;;;;;;;20.34;68.95;99821.47;5055608;28;20260;-79
2022/08/13 02:31:09;;;;;;;;;;;;;;;20.39;69.23;99814.50;5055261;28;19921;-80
2022/08/13 02:33:37;;;;;;;;;;;;;;;20.38;68.94;99825.03;5055158;28;19921;-79
2022/08/13 02:36:10;;;;;;;;;;;;;;;20.38;69.14;99816.53;5055909;28;20393;-79
2022/08/13 02:38:36;;;;;;;;;;;;;;;20.37;68.82;99820.63;5059121;28;20271;-80
2022/08/13 02:43:50;;;;;;;;;;;;;;;20.37;69.10;99826.25;5077299;28;20280;-80
2022/08/13 02:46:15;;;;;;;;;;;;;;;20.37;69.30;99829.09;5058926;28;19923;-80
2022/08/13 02:48:42;;;;;;;;;;;;;;;20.32;70.00;99820.34;5059544;28;20252;-80
2022/08/13 02:51:11;;;;;;;;;;;;;;;20.38;69.76;99822.19;5077193;28;19917;-80
2022/08/13 02:53:37;;;;;;;;;;;;;;;20.32;69.77;99823.94;5058566;28;19956;-80
2022/08/13 02:56:05;;;;;;;;;;;;;;;20.34;69.66;99823.50;5058779;28;19967;-80
2022/08/13 02:58:41;;;;;;;;;;;;;;;20.33;70.35;99824.75;5076250;28;19920;-80
2022/08/13 03:01:10;;;;;;;;;;;;;;;20.25;70.84;99818.47;5058766;28;20010;-79
2022/08/13 03:03:36;;;;;;;;;;;;;;;20.24;70.06;99805.59;5059361;28;20277;-80
2022/08/13 03:06:01;;;;;;;;;;;;;;;20.26;70.03;99808.75;5058590;28;19916;-80
2022/08/13 03:08:30;;;;;;;;;;;;;;;20.28;70.44;99805.50;5058387;28;19916;-80
2022/08/13 03:10:56;;;;;;;;;;;;;;;20.19;70.63;99808.94;5058849;28;19916;-80
2022/08/13 03:13:41;;;;;;;;;;;;;;;20.17;70.25;99805.72;5058499;28;20278;-80
2022/08/13 03:16:09;;;;;;;;;;;;;;;20.04;71.26;99790.72;5058774;28;19920;-80
2022/08/13 03:18:34;;;;;;;;;;;;;;;20.07;71.30;99784.16;5058114;28;19917;-79
2022/08/13 03:20:59;;;;;;;;;;;;;;;20.06;71.33;99782.59;5058103;28;19917;-80
2022/08/13 03:23:27;;;;;;;;;;;;;;;20.11;71.11;99784.88;5058067;28;19917;-81
2022/08/13 03:25:53;;;;;;;;;;;;;;;20.21;70.04;99788.72;5058211;28;19978;-80
2022/08/13 03:28:18;;;;;;;;;;;;;;;20.12;70.29;99794.94;5058551;28;20305;-80
2022/08/13 03:30:49;;;;;;;;;;;;;;;20.11;70.63;99790.53;5058513;28;19997;-80
2022/08/13 03:33:14;;;;;;;;;;;;;;;20.11;70.44;99794.16;5057893;28;19917;-80
2022/08/13 03:35:40;;;;;;;;;;;;;;;20.16;70.35;99790.03;5057877;28;20023;-80
2022/08/13 03:38:07;;;;;;;;;;;;;;;20.22;70.26;99791.09;5075924;28;19956;-79
2022/08/13 03:43:17;;;;;;;;;;;;;;;20.29;69.69;99785.25;5075751;28;20390;-80
2022/08/13 03:45:44;;;;;;;;;;;;;;;20.28;69.93;99783.69;5057550;28;19924;-80
2022/08/13 03:48:10;;;;;;;;;;;;;;;20.27;69.80;99787.75;5057201;28;19923;-80
2022/08/13 03:50:36;;;;;;;;;;;;;;;20.15;70.13;99775.09;5075606;28;19920;-80
2022/08/13 03:53:04;;;;;;;;;;;;;;;20.09;70.30;99776.88;5057576;28;19916;-80
2022/08/13 03:55:31;;;;;;;;;;;;;;;20.06;70.16;99783.38;5057529;28;19916;-80
2022/08/13 03:57:57;;;;;;;;;;;;;;;20.09;69.43;99770.44;5057244;28;20034;-80
2022/08/13 04:00:28;;;;;;;;;;;;;;;20.05;69.70;99781.78;5075600;28;19924;-80
2022/08/13 04:02:57;;;;;;;;;;;;;;;20.15;69.18;99785.63;5058289;28;19921;-80
2022/08/13 04:05:22;;;;;;;;;;;;;;;20.14;68.55;99786.84;5057340;28;19924;-80
2022/08/13 04:07:50;;;;;;;;;;;;;;;20.09;68.80;99781.72;5075264;28;19917;-80
2022/08/13 04:10:16;;;;;;;;;;;;;;;20.08;68.89;99794.22;5057270;28;19917;-80
2022/08/13 04:12:41;;;;;;;;;;;;;;;20.12;68.57;99803.41;5057096;28;19916;-80
2022/08/13 04:15:07;;;;;;;;;;;;;;;20.15;68.15;99802.56;5057296;28;20002;-81
2022/08/13 04:17:40;;;;;;;;;;;;;;;20.15;67.54;99794.88;5056919;28;20402;-80
2022/08/13 04:20:09;;;;;;;;;;;;;;;20.18;68.08;99787.53;5056898;28;20322;-80
2022/08/13 04:22:36;;;;;;;;;;;;;;;20.24;67.57;99794.28;5057036;28;19916;-80
2022/08/13 04:25:04;;;;;;;;;;;;;;;20.27;67.49;99793.41;5056559;28;19923;-80
2022/08/13 04:27:32;;;;;;;;;;;;;;;20.27;67.57;99809.56;5056901;28;20075;-80
2022/08/13 04:29:58;;;;;;;;;;;;;;;20.29;67.32;99813.53;5056679;28;20351;-80
2022/08/13 04:32:23;;;;;;;;;;;;;;;20.31;67.25;99808.25;5074704;28;19956;-80
2022/08/13 04:34:48;;;;;;;;;;;;;;;20.34;67.10;99818.66;5056564;28;19917;-80
2022/08/13 04:37:14;;;;;;;;;;;;;;;20.39;66.53;99818.13;5057099;28;19921;-80
2022/08/13 04:39:39;;;;;;;;;;;;;;;20.80;65.97;99810.34;5056738;28;20434;-80
2022/08/13 04:42:07;;;;;;;;;;;;;;;21.53;63.58;99814.53;5056846;28;20278;-80
2022/08/13 04:44:33;;;;;;;;;;;;;;;22.18;61.79;99813.47;5056440;28;19966;-80
2022/08/13 04:47:01;;;;;;;;;;;;;;;22.90;59.36;99812.00;5056383;28;19916;-80
2022/08/13 04:49:26;;;;;;;;;;;;;;;23.48;56.98;99809.56;5056277;28;19920;-81
2022/08/13 04:51:52;;;;;;;;;;;;;;;24.05;55.69;99803.84;5056050;28;19917;-80
2022/08/13 04:54:19;;;;;;;;;;;;;;;24.34;54.05;99809.22;5056728;28;19963;-84
2022/08/13 04:56:45;;;;;;;;;;;;;;;24.79;53.18;99805.78;5074595;28;19971;-81
2022/08/13 04:59:10;;;;;;;;;;;;;;;25.19;52.36;99807.00;5052115;28;19979;-80
2022/08/13 05:01:36;;;;;;;;;;;;;;;25.57;50.71;99800.88;5053388;28;19921;-80
2022/08/13 05:04:01;;;;;;;;;;;;;;;26.05;49.17;99798.31;5052570;28;19974;-79
2022/08/13 05:06:27;;;;;;;;;;;;;;;26.39;47.41;99808.47;5052734;28;19917;-80
2022/08/13 05:08:52;;;;;;;;;;;;;;;26.77;47.08;99809.94;5070284;28;19920;-79
2022/08/13 05:11:19;;;;;;;;;;;;;;;27.09;46.96;99808.34;5052743;28;19924;-80
2022/08/13 05:13:45;;;;;;;;;;;;;;;27.37;46.40;99806.06;5053055;28;19916;-80
2022/08/13 05:16:13;;;;;;;;;;;;;;;27.53;45.01;99802.75;5052669;28;19963;-80
2022/08/13 05:18:52;;;;;;;;;;;;;;;27.55;45.10;99805.94;5054498;28;19924;-80
2022/08/13 05:21:17;;;;;;;;;;;;;;;27.52;45.26;99800.41;5052567;28;20007;-80
2022/08/13 05:23:42;;;;;;;;;;;;;;;27.88;43.56;99805.03;5053213;28;20020;-80
2022/08/13 05:26:08;;;;;;;;;;;;;;;28.34;42.47;99802.50;5052771;28;20302;-80
2022/08/13 05:28:34;;;;;;;;;;;;;;;28.67;42.06;99807.97;5052231;28;19917;-80
2022/08/13 05:31:00;;;;;;;;;;;;;;;28.99;41.03;99796.75;5052469;28;19917;-80
2022/08/13 05:33:27;;;;;;;;;;;;;;;28.57;42.54;99797.91;5052580;28;20113;-80
2022/08/13 05:36:01;;;;;;;;;;;;;;;28.39;43.03;99795.28;5054325;28;19975;-79
2022/08/13 05:38:27;;;;;;;;;;;;;;;28.70;42.77;99795.50;5052915;28;20074;-79
2022/08/13 05:40:54;;;;;;;;;;;;;;;28.44;43.31;99794.56;5052458;28;19917;-79
2022/08/13 05:43:21;;;;;;;;;;;;;;;28.44;43.72;99798.25;5052490;28;19931;-80
2022/08/13 05:46:08;;;;;;;;;;;;;;;28.26;43.53;99811.94;5053934;28;19943;-80
2022/08/13 05:48:33;;;;;;;;;;;;;;;28.94;41.90;99815.41;5052228;28;19923;-80
2022/08/13 05:51:00;;;;;;;;;;;;;;;28.07;41.12;99819.91;5068868;28;20019;-80
2022/08/13 05:53:27;;;;;;;;;;;;;;;27.72;41.55;99809.16;5053901;28;20081;-80
2022/08/13 05:55:54;;;;;;;;;;;;;;;27.41;42.70;99807.47;5052856;28;20280;-79
2022/08/13 05:58:20;;;;;;;;;;;;;;;26.76;43.88;99794.88;5052263;28;20368;-80
2022/08/13 06:03:29;;;;;;;;;;;;;;;27.28;42.55;99797.59;5053758;28;19969;-80
2022/08/13 06:05:56;;;;;;;;;;;;;;;27.44;41.49;99810.66;5052056;28;19916;-80
2022/08/13 06:08:28;;;;;;;;;;;;;;;27.77;41.34;99813.41;5069448;28;19924;-79
2022/08/13 06:10:54;;;;;;;;;;;;;;;28.55;39.34;99802.53;5053318;28;20066;-79
2022/08/13 06:13:19;;;;;;;;;;;;;;;29.14;37.81;99811.78;5056836;28;19960;-80
2022/08/13 06:15:51;;;;;;;;;;;;;;;29.91;36.62;99809.59;5056195;28;20378;-79
2022/08/13 06:18:18;;;;;;;;;;;;;;;29.91;36.42;99815.31;5055785;28;19921;-80
2022/08/13 06:20:46;;;;;;;;;;;;;;;29.96;36.40;99812.50;5056158;28;19917;-80
2022/08/13 06:23:14;;;;;;;;;;;;;;;29.57;36.09;99809.22;5055822;28;20364;-80
2022/08/13 06:25:41;;;;;;;;;;;;;;;29.85;36.50;99818.13;5055771;28;19916;-80
2022/08/13 06:28:10;;;;;;;;;;;;;;;29.66;36.26;99825.47;5055711;28;20397;-80
2022/08/13 06:30:37;;;;;;;;;;;;;;;30.67;35.83;99823.56;5056000;28;19963;-80
2022/08/13 06:33:03;;;;;;;;;;;;;;;30.99;33.83;99815.72;5056224;28;19939;-80
2022/08/13 06:35:31;;;;;;;;;;;;;;;30.76;34.23;99832.81;5072833;28;19960;-79
2022/08/13 06:37:56;;;;;;;;;;;;;;;31.60;32.70;99846.88;5057467;28;19928;-79
2022/08/13 06:40:23;;;;;;;;;;;;;;;31.50;32.51;99845.53;5055760;28;19917;-79
2022/08/13 06:42:51;;;;;;;;;;;;;;;30.90;34.70;99853.28;5055678;28;19917;-80
2022/08/13 06:45:19;;;;;;;;;;;;;;;30.35;36.00;99857.22;5055932;28;20383;-80
2022/08/13 06:47:45;;;;;;;;;;;;;;;30.34;35.59;99852.78;5056903;28;19931;-80
2022/08/13 06:50:11;;;;;;;;;;;;;;;30.72;34.97;99843.75;5072274;28;20517;-80
2022/08/13 06:52:37;;;;;;;;;;;;;;;29.63;36.68;99835.88;5072021;28;20034;-80
2022/08/13 06:55:06;;;;;;;;;;;;;;;29.16;37.44;99826.41;5055694;28;19916;-79
2022/08/13 06:57:33;;;;;;;;;;;;;;;29.49;37.31;99846.09;5054816;28;20015;-79
2022/08/13 06:59:58;;;;;;;;;;;;;;;29.10;37.90;99847.66;5055368;28;20370;-80
2022/08/13 07:02:24;;;;;;;;;;;;;;;28.61;38.45;99860.69;5055076;28;19948;-79
2022/08/13 07:04:54;;;;;;;;;;;;;;;28.64;39.20;99866.19;5054784;28;20003;-79
2022/08/13 07:07:19;;;;;;;;;;;;;;;29.14;39.12;99866.22;5054932;28;19999;-79
2022/08/13 07:09:45;;;;;;;;;;;;;;;29.90;36.97;99866.16;5054948;28;19999;-79
2022/08/13 07:12:15;;;;;;;;;;;;;;;29.41;37.92;99869.97;5055196;28;19920;-79
2022/08/13 07:14:41;;;;;;;;;;;;;;;29.75;37.16;99871.97;5054909;28;19923;-79
2022/08/13 07:17:07;;;;;;;;;;;;;;;28.74;38.93;99860.34;5054930;28;20015;-79
2022/08/13 07:19:34;;;;;;;;;;;;;;;29.40;38.22;99866.31;5055342;28;19999;-79
2022/08/13 07:21:59;;;;;;;;;;;;;;;29.96;36.66;99869.88;5055934;28;19971;-80
2022/08/13 07:24:26;;;;;;;;;;;;;;;30.11;36.06;99864.03;5053925;28;19917;-79
2022/08/13 07:27:04;;;;;;;;;;;;;;;30.05;36.39;99866.06;5055570;28;20371;-79
2022/08/13 07:29:31;;;;;;;;;;;;;;;30.37;35.37;99874.75;5054759;28;20031;-79
2022/08/13 07:32:00;;;;;;;;;;;;;;;30.48;36.65;99869.09;5054567;28;19960;-80
2022/08/13 07:34:28;;;;;;;;;;;;;;;30.52;37.51;99881.13;5054248;28;19917;-80
2022/08/13 07:36:56;;;;;;;;;;;;;;;30.88;35.52;99890.31;5055681;28;19947;-80
2022/08/13 07:39:22;;;;;;;;;;;;;;;29.81;37.94;99882.72;5055960;28;19917;-79
2022/08/13 07:41:50;;;;;;;;;;;;;;;28.87;39.21;99872.25;5054378;28;20058;-79
2022/08/13 07:44:23;;;;;;;;;;;;;;;28.91;40.04;99870.78;5054362;28;19917;-79
2022/08/13 07:46:54;;;;;;;;;;;;;;;28.42;38.81;99883.78;5054298;28;19917;-79
2022/08/13 07:49:20;;;;;;;;;;;;;;;28.29;40.61;99879.63;5054509;28;20434;-79
2022/08/13 07:51:46;;;;;;;;;;;;;;;28.17;40.77;99882.25;5071211;28;20002;-79
2022/08/13 07:54:15;;;;;;;;;;;;;;;27.87;42.21;99887.16;5054746;28;19917;-79
2022/08/13 07:56:42;;;;;;;;;;;;;;;27.99;42.52;99891.00;5054119;28;19917;-79
2022/08/13 07:59:12;;;;;;;;;;;;;;;27.99;40.78;99891.00;5074103;28;20009;-79
2022/08/13 08:01:45;;;;;;;;;;;;;;;28.19;41.16;99884.63;5074515;28;19924;-79
2022/08/13 08:04:13;;;;;;;;;;;;;;;29.37;38.72;99889.44;5073817;28;19917;-79
2022/08/13 08:06:39;;;;;;;;;;;;;;;29.46;37.99;99883.59;5056925;28;19923;-79
2022/08/13 08:09:07;;;;;;;;;;;;;;;30.03;38.27;99880.09;5056893;28;20007;-80
2022/08/13 08:14:18;;;;;;;;;;;;;;;28.88;45.69;99868.91;5074987;28;19927;-79
2022/08/13 08:16:44;;;;;;;;;;;;;;;30.03;43.61;99868.63;5056959;28;19921;-79
2022/08/13 08:19:11;;;;;;;;;;;;;;;29.79;43.32;99866.03;5075067;28;20386;-79
2022/08/13 08:21:40;;;;;;;;;;;;;;;29.55;44.09;99866.25;5056645;28;19920;-79
2022/08/13 08:24:05;;;;;;;;;;;;;;;29.52;45.06;99870.09;5057311;28;20343;-79
2022/08/13 08:26:34;;;;;;;;;;;;;;;29.31;44.80;99872.19;5056556;28;19938;-79
2022/08/13 08:29:00;;;;;;;;;;;;;;;29.53;44.87;99865.16;5075255;28;20382;-79
2022/08/13 08:31:26;;;;;;;;;;;;;;;28.54;45.29;99858.22;5057176;28;19991;-80
2022/08/13 08:33:55;;;;;;;;;;;;;;;28.44;43.91;99849.75;5056672;28;20024;-79
2022/08/13 08:36:23;;;;;;;;;;;;;;;28.23;44.68;99844.38;5056704;28;20209;-79
2022/08/13 08:44:22;;;;;;;;;;;;;;;27.97;46.94;99847.06;5074729;28;19924;-79
2022/08/13 08:46:48;;;;;;;;;;;;;;;28.01;48.20;99865.56;5056249;28;19926;-79
2022/08/13 08:49:15;;;;;;;;;;;;;;;27.65;49.98;99866.66;5056824;28;19917;-80
2022/08/13 08:51:41;;;;;;;;;;;;;;;27.44;50.06;99864.94;5072873;28;19921;-79
2022/08/13 08:54:07;;;;;;;;;;;;;;;27.18;51.71;99867.47;5056264;28;19927;-79
2022/08/13 08:56:34;;;;;;;;;;;;;;;27.45;51.48;99866.50;5056433;28;20382;-79
2022/08/13 08:59:00;;;;;;;;;;;;;;;27.89;49.84;99870.28;5055645;28;19926;-79
2022/08/13 09:01:28;;;;;;;;;;;;;;;28.06;48.99;99875.53;5056610;28;20011;-80
2022/08/13 09:03:56;;;;;;;;;;;;;;;28.33;48.21;99880.22;5056348;28;19924;-79
2022/08/13 09:06:23;;;;;;;;;;;;;;;28.35;47.85;99878.47;5056282;28;20316;-79
2022/08/13 09:08:53;;;;;;;;;;;;;;;28.28;47.69;99884.53;5055932;28;19952;-79
2022/08/13 09:11:19;;;;;;;;;;;;;;;27.87;48.87;99883.50;5056400;28;20018;-79
2022/08/13 09:13:50;;;;;;;;;;;;;;;27.47;49.63;99873.28;5073554;28;19948;-80
2022/08/13 09:16:17;;;;;;;;;;;;;;;27.41;50.02;99875.25;5055907;28;19916;-79
2022/08/13 09:18:43;;;;;;;;;;;;;;;27.12;50.80;99879.56;5074153;28;19916;-79
2022/08/13 09:21:08;;;;;;;;;;;;;;;27.04;51.20;99875.44;5056174;28;19962;-79
2022/08/13 09:23:34;;;;;;;;;;;;;;;27.29;51.08;99877.06;5055781;28;20283;-79
2022/08/13 09:26:02;;;;;;;;;;;;;;;27.03;51.02;99871.00;5055759;28;20026;-79
2022/08/13 09:28:27;;;;;;;;;;;;;;;26.95;51.44;99863.25;5074138;28;20256;-79
2022/08/13 09:30:53;;;;;;;;;;;;;;;27.10;51.06;99867.81;5056180;28;19924;-79
2022/08/13 09:33:20;;;;;;;;;;;;;;;27.21;49.75;99866.47;5055674;28;19923;-79
2022/08/13 09:35:51;;;;;;;;;;;;;;;27.48;48.90;99868.38;5073557;28;19922;-79
2022/08/13 09:38:18;;;;;;;;;;;;;;;27.30;49.86;99860.72;5056210;28;20011;-79
2022/08/13 09:40:47;;;;;;;;;;;;;;;27.03;50.06;99851.00;5055652;28;19923;-79
2022/08/13 09:43:27;;;;;;;;;;;;;;;26.93;51.24;99840.91;5073040;28;19923;-79
2022/08/13 09:45:52;;;;;;;;;;;;;;;27.25;50.37;99845.03;5073481;28;19917;-80
2022/08/13 09:48:18;;;;;;;;;;;;;;;27.48;49.01;99845.50;5059815;28;19966;-81
2022/08/13 09:50:43;;;;;;;;;;;;;;;27.72;48.85;99845.53;5059995;28;19916;-80
2022/08/13 09:53:09;;;;;;;;;;;;;;;27.72;48.52;99837.72;5059732;28;20390;-80
2022/08/13 09:55:37;;;;;;;;;;;;;;;27.66;47.34;99840.44;5059664;28;20017;-80
2022/08/13 09:58:02;;;;;;;;;;;;;;;29.30;44.72;99833.34;5059294;28;19928;-80
2022/08/13 10:00:29;;;;;;;;;;;;;;;29.33;43.97;99828.69;5059492;28;19916;-81
2022/08/13 10:03:06;;;;;;;;;;;;;;;28.93;44.98;99822.44;5060126;28;19984;-80
2022/08/13 10:05:34;;;;;;;;;;;;;;;28.85;45.50;99811.84;5059513;28;19916;-80
2022/08/13 10:08:00;;;;;;;;;;;;;;;29.11;45.14;99812.00;5059517;28;19923;-80
2022/08/13 10:10:26;;;;;;;;;;;;;;;29.43;44.09;99795.72;5059329;28;19917;-78
2022/08/13 10:12:52;;;;;;;;;;;;;;;29.57;43.27;99791.25;5077951;28;19921;-80
2022/08/13 10:15:17;;;;;;;;;;;;;;;29.41;42.86;99786.88;5059813;28;19927;-78
2022/08/13 10:17:45;;;;;;;;;;;;;;;29.83;41.93;99759.69;5059535;28;20422;-80
2022/08/13 10:20:10;;;;;;;;;;;;;;;29.73;41.76;99759.88;5077508;28;19939;-80
2022/08/13 10:22:36;;;;;;;;;;;;;;;29.55;42.90;99759.41;5059834;28;19916;-80
2022/08/13 10:25:01;;;;;;;;;;;;;;;30.36;40.78;99775.56;5059502;28;20313;-80
2022/08/13 10:27:26;;;;;;;;;;;;;;;30.32;39.82;99783.66;5059391;28;19916;-80
2022/08/13 10:29:52;;;;;;;;;;;;;;;30.99;37.88;99781.25;5076076;28;20352;-80
2022/08/13 10:32:17;;;;;;;;;;;;;;;31.37;37.85;99784.84;5059129;28;20369;-80
2022/08/13 10:34:44;;;;;;;;;;;;;;;31.97;37.63;99788.44;5059585;28;19929;-80
2022/08/13 10:37:15;;;;;;;;;;;;;;;32.67;35.61;99787.41;5077202;28;20293;-80
2022/08/13 10:39:41;;;;;;;;;;;;;;;32.33;36.52;99793.16;5059284;28;19917;-80
2022/08/13 10:42:08;;;;;;;;;;;;;;;31.34;38.20;99771.53;5059780;28;20322;-80
2022/08/13 10:44:34;;;;;;;;;;;;;;;31.28;39.27;99772.28;5059134;28;19917;-80
2022/08/13 10:46:59;;;;;;;;;;;;;;;31.11;39.32;99759.09;5058708;28;19916;-80
2022/08/13 10:49:25;;;;;;;;;;;;;;;30.36;41.38;99759.19;5059320;28;19917;-80
2022/08/13 10:51:50;;;;;;;;;;;;;;;30.52;41.21;99767.13;5058706;28;19939;-80
2022/08/13 10:54:15;;;;;;;;;;;;;;;29.85;42.04;99771.47;5059041;28;19923;-80
2022/08/13 10:56:41;;;;;;;;;;;;;;;29.71;42.55;99762.47;5058634;28;19966;-80
2022/08/13 10:59:07;;;;;;;;;;;;;;;30.08;41.40;99766.72;5053525;28;19925;-80
2022/08/13 11:01:32;;;;;;;;;;;;;;;29.78;43.23;99771.94;5055362;28;19917;-80
2022/08/13 11:04:01;;;;;;;;;;;;;;;29.79;44.08;99773.50;5055463;28;19917;-80
2022/08/13 11:06:27;;;;;;;;;;;;;;;29.61;44.10;99772.50;5055072;28;19927;-80
2022/08/13 11:08:54;;;;;;;;;;;;;;;29.52;45.03;99789.84;5056436;28;20003;-80
2022/08/13 11:11:21;;;;;;;;;;;;;;;30.19;43.33;99779.09;5054884;28;19924;-80
2022/08/13 11:13:46;;;;;;;;;;;;;;;30.24;42.76;99786.97;5054994;28;20368;-79
2022/08/13 11:18:58;;;;;;;;;;;;;;;30.92;41.45;99778.88;5056198;28;20011;-80
2022/08/13 11:21:24;;;;;;;;;;;;;;;31.01;41.27;99779.44;5055459;28;19956;-80
2022/08/13 11:23:54;;;;;;;;;;;;;;;31.49;40.45;99777.84;5055199;28;19923;-80
2022/08/13 11:26:19;;;;;;;;;;;;;;;31.00;40.36;99771.31;5056448;28;20000;-80
2022/08/13 11:28:45;;;;;;;;;;;;;;;30.88;40.85;99769.69;5055433;28;19990;-80
2022/08/13 11:31:10;;;;;;;;;;;;;;;30.75;40.22;99761.53;5055024;28;20276;-80
2022/08/13 11:33:36;;;;;;;;;;;;;;;30.44;41.05;99763.13;5055003;28;19917;-80
2022/08/13 11:36:01;;;;;;;;;;;;;;;30.25;41.47;99759.84;5054677;28;20471;-80
2022/08/13 11:38:26;;;;;;;;;;;;;;;30.11;42.08;99751.38;5054585;28;19928;-80
2022/08/13 11:40:53;;;;;;;;;;;;;;;30.26;42.02;99749.97;5055155;28;19917;-80
2022/08/13 11:43:19;;;;;;;;;;;;;;;30.82;41.04;99763.94;5055512;28;20327;-79
2022/08/13 11:45:45;;;;;;;;;;;;;;;30.71;40.31;99764.66;5054562;28;19917;-79
2022/08/13 11:48:11;;;;;;;;;;;;;;;30.50;39.91;99754.56;5054435;28;19916;-79
2022/08/13 11:50:36;;;;;;;;;;;;;;;31.02;39.25;99763.00;5054422;28;19970;-81
2022/08/13 11:53:02;;;;;;;;;;;;;;;30.31;41.42;99751.31;5054370;28;19927;-80
2022/08/13 11:55:27;;;;;;;;;;;;;;;30.39;41.54;99760.22;5054265;28;19923;-79
2022/08/13 11:57:59;;;;;;;;;;;;;;;30.80;41.41;99754.28;5054099;28;19921;-79
2022/08/13 12:00:26;;;;;;;;;;;;;;;30.53;41.56;99754.34;5054170;28;19917;-80
2022/08/13 12:02:51;;;;;;;;;;;;;;;30.26;41.31;99747.09;5054169;28;19923;-79
2022/08/13 12:05:19;;;;;;;;;;;;;;;30.51;40.62;99739.69;5054361;28;19917;-79
2022/08/13 12:07:44;;;;;;;;;;;;;;;31.01;40.35;99744.19;5054062;28;19917;-79
2022/08/13 12:10:10;;;;;;;;;;;;;;;31.17;39.72;99748.44;5053604;28;19970;-80
2022/08/13 12:12:35;;;;;;;;;;;;;;;31.11;40.54;99751.28;5053962;28;19920;-79
2022/08/13 12:15:01;;;;;;;;;;;;;;;31.05;39.38;99750.44;5054361;28;19924;-79
2022/08/13 12:17:27;;;;;;;;;;;;;;;31.02;39.27;99746.53;5053797;28;19920;-80
2022/08/13 12:19:52;;;;;;;;;;;;;;;30.87;40.29;99756.66;5055137;28;19917;-80
2022/08/13 12:22:18;;;;;;;;;;;;;;;30.73;39.93;99746.91;5053737;28;19924;-80
2022/08/13 12:24:43;;;;;;;;;;;;;;;30.10;41.27;99752.66;5053761;28;19917;-79
2022/08/13 12:27:09;;;;;;;;;;;;;;;29.92;41.56;99753.78;5053624;28;20054;-79
2022/08/13 12:29:37;;;;;;;;;;;;;;;29.96;42.21;99748.63;5054645;28;19917;-80
2022/08/13 12:32:04;;;;;;;;;;;;;;;29.84;42.72;99755.56;5054182;28;19939;-80
2022/08/13 12:34:30;;;;;;;;;;;;;;;30.10;42.26;99764.94;5053576;28;19916;-80
2022/08/13 12:36:55;;;;;;;;;;;;;;;29.58;42.57;99767.03;5053488;28;19920;-80
2022/08/13 12:39:21;;;;;;;;;;;;;;;29.25;43.48;99756.72;5053564;28;19963;-79
2022/08/13 12:41:46;;;;;;;;;;;;;;;28.84;41.94;99742.34;5053386;28;20375;-79
2022/08/13 12:44:12;;;;;;;;;;;;;;;29.52;42.38;99744.00;5053331;28;19964;-80
2022/08/13 12:46:37;;;;;;;;;;;;;;;30.23;39.63;99744.44;5053253;28;19916;-80
2022/08/13 12:49:03;;;;;;;;;;;;;;;30.77;37.41;99742.50;5053165;28;19916;-80
2022/08/13 12:51:29;;;;;;;;;;;;;;;30.81;36.47;99745.13;5053232;28;19917;-80
2022/08/13 12:53:54;;;;;;;;;;;;;;;31.06;35.87;99734.03;5053179;28;19923;-80
2022/08/13 12:56:19;;;;;;;;;;;;;;;31.12;35.33;99738.50;5053720;28;19916;-80
2022/08/13 12:58:45;;;;;;;;;;;;;;;31.34;35.94;99742.78;5052750;28;20291;-79
2022/08/13 13:01:11;;;;;;;;;;;;;;;30.98;36.44;99730.84;5053363;28;20368;-79
2022/08/13 13:03:36;;;;;;;;;;;;;;;30.32;36.10;99723.41;5053342;28;20019;-79
2022/08/13 13:06:01;;;;;;;;;;;;;;;30.52;36.79;99720.38;5053082;28;20372;-79
2022/08/13 13:08:31;;;;;;;;;;;;;;;30.88;36.50;99724.53;5052853;28;19917;-80
2022/08/13 13:10:59;;;;;;;;;;;;;;;30.89;35.65;99720.34;5052939;28;20015;-80